Time;durP1;ratioP1;P1;durP2;ratioP2;P2;SDS_P1;SDS_P2;PMS_P1;PMS_P2;Temp;Humidity;BMP_temperature;BMP_pressure;BME280_temperature;BME280_humidity;BME280_pressure;Samples;Min_cycle;Max_cycle;Signal;HPM_P1;HPM_P2
2022/09/13 00:00:15;;;;;;;11.70;7.70;;;;;;;10.74;78.83;98481.10;433392;1270;98840;-41
2022/09/13 00:10:42;;;;;;;;;;;;;;;10.69;78.61;98465.87;433578;1270;107670;-41
2022/09/13 00:20:50;;;;;;;12.40;10.20;;;;;;;10.47;78.92;98454.46;433505;1269;98834;-39
2022/09/13 00:30:59;;;;;;;12.50;8.10;;;;;;;10.33;79.06;98459.03;433626;1270;112263;-39
2022/09/13 00:41:08;;;;;;;10.40;8.20;;;;;;;10.25;79.05;98467.16;433698;1271;107747;-41
2022/09/13 00:51:16;;;;;;;10.60;7.50;;;;;;;10.13;78.88;98465.34;433834;1270;98005;-40
2022/09/13 01:01:26;;;;;;;16.10;8.40;;;;;;;9.94;78.91;98454.02;433407;1270;108216;-41
2022/09/13 01:11:36;;;;;;;11.40;9.30;;;;;;;9.84;79.22;98447.35;433603;1270;99235;-40
2022/09/13 01:22:18;;;;;;;18.90;10.10;;;;;;;9.75;79.11;98433.05;434227;1261;112348;31
2022/09/13 01:32:24;;;;;;;9.20;7.70;;;;;;;9.66;79.55;98431.12;432600;1271;108823;-39
2022/09/13 01:42:37;;;;;;;12.20;9.10;;;;;;;9.67;79.73;98428.82;433007;1271;99050;-39
2022/09/13 01:52:43;;;;;;;10.80;9.40;;;;;;;9.66;79.94;98423.31;432874;1271;109043;-40
2022/09/13 02:02:52;;;;;;;14.90;10.50;;;;;;;9.66;80.32;98412.23;433274;1271;99246;-40
2022/09/13 02:12:59;;;;;;;10.20;8.40;;;;;;;9.76;80.51;98407.31;433296;1270;112515;-39
2022/09/13 02:23:12;;;;;;;13.60;10.30;;;;;;;9.71;80.48;98398.31;432960;1271;108958;-41
2022/09/13 02:33:24;;;;;;;12.80;10.00;;;;;;;9.65;80.55;98385.77;433144;1270;100006;-40
2022/09/13 02:43:30;;;;;;;14.90;10.70;;;;;;;9.58;80.67;98379.16;433345;1271;109081;-40
2022/09/13 02:53:35;;;;;;;13.50;11.20;;;;;;;9.46;80.62;98375.65;433214;1269;99378;-40
2022/09/13 03:13:55;;;;;;;19.10;14.50;;;;;;;9.13;80.80;98362.22;433238;1271;108934;-38
2022/09/13 03:34:23;;;;;;;19.80;12.70;;;;;;;8.85;80.93;98362.10;433357;1271;108896;-40
2022/09/13 03:44:34;;;;;;;16.80;12.20;;;;;;;8.74;81.04;98356.05;433180;1270;99238;-39
2022/09/13 03:54:41;;;;;;;18.40;14.20;;;;;;;8.66;81.04;98358.36;433242;1271;112347;-39
2022/09/13 04:04:49;;;;;;;15.90;12.30;;;;;;;8.61;81.20;98358.15;432983;1270;108931;-39
2022/09/13 04:14:56;;;;;;;19.90;13.10;;;;;;;8.48;81.24;98347.20;433148;1271;98850;-39
2022/09/13 04:25:02;;;;;;;17.70;13.60;;;;;;;8.39;81.35;98343.23;432866;1270;108916;-39
2022/09/13 04:35:09;;;;;;;16.30;12.40;;;;;;;8.40;81.44;98341.14;433214;1271;99269;-39
2022/09/13 04:45:16;;;;;;;19.80;13.80;;;;;;;8.34;81.66;98339.19;432688;1271;111524;-40
2022/09/13 05:05:32;;;;;;;19.70;13.60;;;;;;;8.37;81.86;98337.21;432621;1271;98986;-41
2022/09/13 05:15:39;;;;;;;14.50;12.50;;;;;;;8.65;82.16;98335.79;432610;1269;109063;-41
2022/09/13 05:35:53;;;;;;;17.40;12.80;;;;;;;11.21;83.19;98331.89;432751;1270;112440;-41
2022/09/13 05:56:09;;;;;;;21.60;16.40;;;;;;;13.12;81.82;98332.90;431881;1271;99264;-41
2022/09/13 06:06:23;;;;;;;16.50;14.30;;;;;;;14.09;81.29;98341.45;432528;1271;108565;-41
2022/09/13 06:16:30;;;;;;;22.30;15.00;;;;;;;15.69;80.98;98342.39;431869;1270;1545918;-41
2022/09/13 06:26:37;;;;;;;19.80;14.90;;;;;;;16.56;79.44;98333.64;433048;1271;112571;-39
2022/09/13 06:36:45;;;;;;;19.60;14.40;;;;;;;17.01;78.72;98319.10;432543;1271;108832;-40
2022/09/13 06:46:51;;;;;;;18.00;13.30;;;;;;;17.25;77.26;98313.73;432707;1270;99247;-38
2022/09/13 06:57:01;;;;;;;21.10;16.60;;;;;;;17.16;76.61;98316.27;432806;1270;108938;-40
2022/09/13 07:07:09;;;;;;;22.70;16.10;;;;;;;16.49;76.08;98316.38;432863;1270;99244;-40
2022/09/13 07:17:16;;;;;;;19.80;13.80;;;;;;;17.12;76.43;98316.25;432820;1269;113049;-40
2022/09/13 07:27:24;;;;;;;21.10;15.40;;;;;;;17.31;75.66;98305.94;432779;1269;108949;-39
2022/09/13 07:37:31;;;;;;;18.60;14.20;;;;;;;17.21;75.09;98301.69;433006;1271;99494;-39
2022/09/13 07:47:38;;;;;;;14.30;11.50;;;;;;;16.80;74.95;98292.30;432844;1269;109138;-40
2022/09/13 07:57:46;;;;;;;13.20;9.70;;;;;;;16.95;75.71;98288.01;432712;1270;101588;-41
2022/09/13 08:07:53;;;;;;;10.90;6.90;;;;;;;18.10;75.43;98286.73;432700;1269;113209;-40
2022/09/13 08:18:01;;;;;;;10.70;5.00;;;;;;;18.68;74.77;98280.76;433060;1269;108870;-39
2022/09/13 08:28:08;;;;;;;6.60;4.20;;;;;;;19.57;73.77;98264.23;432634;1270;98084;-39
2022/09/13 08:38:15;;;;;;;4.40;3.00;;;;;;;19.63;71.95;98260.28;432658;1270;108877;-40
2022/09/13 08:48:30;;;;;;;4.10;3.70;;;;;;;19.97;71.47;98257.64;433014;1270;99237;-40
2022/09/13 08:58:48;;;;;;;6.50;3.90;;;;;;;20.35;70.37;98265.31;433108;1271;112949;-40
2022/09/13 09:08:58;;;;;;;4.70;3.90;;;;;;;20.31;69.53;98259.39;432837;1270;108596;-41
2022/09/13 09:19:06;;;;;;;4.70;4.20;;;;;;;20.62;69.30;98254.66;433061;1270;99220;-41
2022/09/13 09:29:16;;;;;;;8.10;4.20;;;;;;;20.84;68.54;98243.27;433037;1270;108799;-40
2022/09/13 09:39:37;;;;;;;6.90;3.40;;;;;;;20.47;67.83;98238.20;433161;1270;99249;-40
2022/09/13 10:00:13;;;;;;;5.70;3.40;;;;;;;20.80;66.24;98226.70;433545;1270;108953;-41
2022/09/13 10:20:31;;;;;;;3.80;3.10;;;;;;;21.05;65.29;98205.16;432917;1270;108781;-41
2022/09/13 10:30:42;;;;;;;4.90;3.40;;;;;;;21.07;65.02;98199.89;433253;1270;98563;-41
2022/09/13 10:40:49;;;;;;;3.80;3.50;;;;;;;21.18;64.68;98183.10;433599;1270;112576;-41
2022/09/13 10:51:01;;;;;;;5.20;3.00;;;;;;;21.41;64.20;98172.63;433213;1270;108713;-41
2022/09/13 11:01:35;;;;;;;5.10;3.70;;;;;;;21.75;63.27;98157.30;433172;1270;99284;-41
2022/09/13 11:11:48;;;;;;;5.90;3.60;;;;;;;21.88;62.33;98143.98;433013;1270;108754;-40
2022/09/13 11:21:57;;;;;;;4.40;4.00;;;;;;;21.93;61.81;98132.20;433261;1269;98002;-41
2022/09/13 11:32:06;;;;;;;7.90;4.50;;;;;;;21.63;61.20;98124.06;433217;1270;112421;-40
2022/09/13 11:42:16;;;;;;;5.70;4.50;;;;;;;21.43;61.13;98100.35;433339;1270;109068;-39
2022/09/13 11:52:25;;;;;;;4.10;3.70;;;;;;;21.14;60.84;98088.73;433341;1270;98002;-40
2022/09/13 12:02:37;;;;;;;5.80;4.70;;;;;;;20.85;61.05;98074.42;433372;1270;109215;-40
2022/09/13 12:22:58;;;;;;;4.80;3.90;;;;;;;20.78;60.81;98047.14;433236;1270;111559;-40
2022/09/13 12:33:05;;;;;;;4.30;3.80;;;;;;;21.16;60.91;98058.84;433279;1270;108737;-40
2022/09/13 12:43:31;;;;;;;5.10;4.60;;;;;;;21.21;60.49;98044.89;433292;1270;98025;-40
2022/09/13 12:54:12;;;;;;;4.10;3.70;;;;;;;21.37;59.89;98034.05;433200;1270;108950;-41
2022/09/13 13:04:17;;;;;;;5.00;3.90;;;;;;;21.21;59.66;98019.46;432601;1270;100022;-39
2022/09/13 13:24:50;;;;;;;4.00;3.50;;;;;;;21.31;59.68;98004.48;433324;1269;108804;-39
2022/09/13 13:35:17;;;;;;;5.20;4.60;;;;;;;21.45;59.37;97995.99;433400;1270;98067;-39
2022/09/13 13:45:24;;;;;;;9.30;4.40;;;;;;;21.46;59.59;97983.96;433301;1270;108894;-39
2022/09/13 14:05:36;;;;;;;3.90;3.50;;;;;;;21.16;59.45;97967.89;433311;1270;112314;-40
2022/09/13 14:15:49;;;;;;;9.40;3.60;;;;;;;20.94;59.58;97957.00;433409;1270;108708;-39
2022/09/13 14:25:55;;;;;;;4.60;4.00;;;;;;;20.75;59.64;97946.43;433193;1268;99257;-40
2022/09/13 14:36:03;;;;;;;4.00;3.60;;;;;;;20.42;59.71;97944.70;432819;1270;108856;-40
2022/09/13 14:46:15;;;;;;;4.40;4.00;;;;;;;20.17;60.04;97929.30;433189;1270;98863;-40
2022/09/13 14:56:20;;;;;;;4.90;4.20;;;;;;;19.91;60.39;97917.10;433185;1270;112757;-41
2022/09/13 15:06:30;;;;;;;5.80;4.40;;;;;;;19.73;60.59;97913.27;433041;1270;109048;-41
2022/09/13 15:16:47;;;;;;;10.70;5.50;;;;;;;19.44;60.86;97897.47;433437;1270;98037;-41
2022/09/13 15:27:02;;;;;;;7.20;5.40;;;;;;;19.26;61.36;97893.30;433298;1270;108737;-41
2022/09/13 15:47:15;;;;;;;8.50;5.60;;;;;;;19.14;62.01;97890.83;433590;1270;112405;-41
2022/09/13 15:57:21;;;;;;;6.60;4.60;;;;;;;19.04;62.56;97894.34;433159;1269;108968;-40
2022/09/13 16:07:28;;;;;;;6.60;4.60;;;;;;;18.98;62.92;97887.55;433220;1268;101520;-41
2022/09/13 16:17:34;;;;;;;8.40;5.20;;;;;;;18.95;63.52;97886.70;433341;1270;108524;-41
2022/09/13 16:27:43;;;;;;;7.00;5.60;;;;;;;18.80;63.78;97881.58;433128;1269;99267;-41
2022/09/13 16:37:51;;;;;;;9.70;5.30;;;;;;;18.65;64.13;97876.73;433023;1270;113411;-41
2022/09/13 16:47:59;;;;;;;9.80;5.30;;;;;;;18.50;64.30;97878.32;432748;1270;108685;-41
2022/09/13 16:58:06;;;;;;;13.10;6.40;;;;;;;18.31;64.57;97869.75;432649;1270;99253;-40
2022/09/13 17:08:13;;;;;;;11.50;5.50;;;;;;;18.19;64.98;97862.13;433029;1270;108410;-41
2022/09/13 17:18:20;;;;;;;8.40;5.90;;;;;;;18.08;65.66;97858.55;433110;1270;98119;-40
2022/09/13 17:28:28;;;;;;;8.60;5.60;;;;;;;17.93;65.91;97856.25;433172;1270;112619;-40
2022/09/13 17:38:35;;;;;;;8.30;5.90;;;;;;;17.81;66.32;97857.18;432910;1270;108219;-41
2022/09/13 17:48:43;;;;;;;12.10;6.80;;;;;;;17.73;66.75;97849.02;433294;1271;99276;-40
2022/09/13 18:08:57;;;;;;;16.00;8.90;;;;;;;17.61;67.75;97843.42;432001;1270;1792148;-40
2022/09/13 18:19:04;;;;;;;19.60;8.70;;;;;;;17.60;67.90;97843.52;433005;1270;111329;-38
2022/09/13 18:29:12;;;;;;;14.40;8.20;;;;;;;17.60;68.17;97847.34;433049;1270;107949;-41
2022/09/13 18:39:20;;;;;;;13.00;8.00;;;;;;;17.57;68.43;97837.09;432950;1271;98818;-42
2022/09/13 18:49:27;;;;;;;13.20;9.00;;;;;;;17.49;68.77;97837.16;432795;1270;109386;-41
2022/09/13 18:59:35;;;;;;;11.50;8.30;;;;;;;17.43;68.82;97836.79;433492;1270;99906;-39
2022/09/13 19:09:42;;;;;;;9.60;7.10;;;;;;;17.47;69.04;97833.02;433240;1270;112407;-38
2022/09/13 19:19:49;;;;;;;11.50;6.70;;;;;;;17.50;69.21;97834.15;433395;1270;109049;-41
2022/09/13 19:29:58;;;;;;;11.80;7.70;;;;;;;17.43;69.26;97825.34;433143;1271;98018;-41
2022/09/13 19:40:04;;;;;;;13.90;7.20;;;;;;;17.39;69.45;97817.98;433077;1270;108410;-39
2022/09/13 19:50:11;;;;;;;11.10;6.30;;;;;;;17.40;69.39;97813.27;432672;1270;99271;-39
2022/09/13 20:00:18;;;;;;;10.90;6.10;;;;;;;17.41;69.48;97813.25;433238;1270;112459;-39
2022/09/13 20:10:25;;;;;;;6.90;6.30;;;;;;;17.35;69.80;97812.19;433040;1270;108878;-39
2022/09/13 20:20:36;;;;;;;6.90;5.60;;;;;;;17.30;69.69;97807.19;433325;1270;99264;-39
2022/09/13 20:30:51;;;;;;;8.40;6.20;;;;;;;17.30;69.76;97804.20;432791;1271;108987;-39
2022/09/13 20:41:02;;;;;;;8.20;6.70;;;;;;;17.31;69.92;97802.64;432985;1270;99343;-39
2022/09/13 20:51:11;;;;;;;11.00;6.70;;;;;;;17.22;70.08;97801.12;433197;1269;112664;-40
2022/09/13 21:01:21;;;;;;;8.10;6.50;;;;;;;17.10;70.07;97800.30;433116;1270;108713;-41
2022/09/13 21:11:32;;;;;;;6.30;5.70;;;;;;;17.06;70.27;97792.30;432945;1270;99471;-40
2022/09/13 21:21:42;;;;;;;11.20;6.40;;;;;;;17.00;70.38;97793.45;433249;1270;108822;-40
2022/09/13 21:31:50;;;;;;;9.90;7.60;;;;;;;16.88;70.65;97792.32;433151;1270;98841;-40
2022/09/13 21:41:57;;;;;;;9.00;6.20;;;;;;;16.71;70.79;97796.52;433257;1270;111261;-40
2022/09/13 21:52:02;;;;;;;9.70;6.90;;;;;;;16.67;71.06;97793.00;433472;1271;108943;-41
2022/09/13 22:02:10;;;;;;;13.30;7.50;;;;;;;16.71;71.34;97784.92;433300;1270;99939;-40
2022/09/13 22:12:17;;;;;;;12.70;7.50;;;;;;;16.67;71.31;97780.70;433525;1270;108765;-39
2022/09/13 22:22:25;;;;;;;9.70;7.40;;;;;;;16.52;71.36;97773.85;433170;1270;99271;-39
2022/09/13 22:32:32;;;;;;;10.60;7.30;;;;;;;16.35;71.50;97768.45;433069;1270;112326;-40
2022/09/13 22:42:39;;;;;;;9.60;7.10;;;;;;;16.25;71.63;97758.31;433202;1270;109051;-41
2022/09/13 22:52:46;;;;;;;8.80;7.20;;;;;;;16.17;72.03;97754.71;433096;1270;99259;-40
2022/09/13 23:02:54;;;;;;;11.60;8.30;;;;;;;16.06;72.20;97759.54;433050;1270;108745;-40
2022/09/13 23:13:02;;;;;;;12.80;8.80;;;;;;;15.88;72.50;97764.07;432869;1271;98042;-39
2022/09/13 23:23:09;;;;;;;12.50;9.00;;;;;;;15.71;72.72;97759.70;433013;1271;112757;-39
2022/09/13 23:33:17;;;;;;;10.20;8.30;;;;;;;15.61;72.94;97757.02;433290;1271;109326;-39
2022/09/13 23:43:25;;;;;;;13.00;8.40;;;;;;;15.58;73.28;97753.08;433351;1271;99251;-39
2022/09/13 23:53:32;;;;;;;11.40;8.10;;;;;;;15.54;73.50;97754.66;433216;1270;108810;-39
